sensor_id;sensor_type;location;lat;lon;timestamp;P1;durP1;ratioP1;P2;durP2;ratioP2
66425;SDS011;53237;46.158;14.604;2023-07-16T00:00:35;4.78;;;4.38;;
66425;SDS011;53237;46.158;14.604;2023-07-16T00:03:01;4.65;;;4.25;;
66425;SDS011;53237;46.158;14.604;2023-07-16T00:05:27;4.65;;;4.25;;
66425;SDS011;53237;46.158;14.604;2023-07-16T00:07:53;4.55;;;4.15;;
66425;SDS011;53237;46.158;14.604;2023-07-16T00:10:19;5.22;;;4.72;;
66425;SDS011;53237;46.158;14.604;2023-07-16T00:12:45;4.70;;;4.30;;
66425;SDS011;53237;46.158;14.604;2023-07-16T00:15:11;5.13;;;4.60;;
66425;SDS011;53237;46.158;14.604;2023-07-16T00:17:37;4.93;;;4.43;;
66425;SDS011;53237;46.158;14.604;2023-07-16T00:20:03;5.00;;;4.60;;
66425;SDS011;53237;46.158;14.604;2023-07-16T00:22:31;4.63;;;4.22;;
66425;SDS011;53237;46.158;14.604;2023-07-16T00:24:56;4.95;;;4.55;;
66425;SDS011;53237;46.158;14.604;2023-07-16T00:27:22;4.22;;;3.92;;
66425;SDS011;53237;46.158;14.604;2023-07-16T00:29:48;4.70;;;4.30;;
66425;SDS011;53237;46.158;14.604;2023-07-16T00:32:14;4.50;;;4.10;;
66425;SDS011;53237;46.158;14.604;2023-07-16T00:34:40;5.22;;;4.20;;
66425;SDS011;53237;46.158;14.604;2023-07-16T00:37:06;4.53;;;4.13;;
66425;SDS011;53237;46.158;14.604;2023-07-16T00:39:32;4.50;;;4.10;;
66425;SDS011;53237;46.158;14.604;2023-07-16T00:41:58;4.45;;;4.00;;
66425;SDS011;53237;46.158;14.604;2023-07-16T00:44:24;4.35;;;4.05;;
66425;SDS011;53237;46.158;14.604;2023-07-16T00:46:50;4.63;;;4.22;;
66425;SDS011;53237;46.158;14.604;2023-07-16T00:49:17;4.45;;;3.95;;
66425;SDS011;53237;46.158;14.604;2023-07-16T00:51:43;4.72;;;4.28;;
66425;SDS011;53237;46.158;14.604;2023-07-16T00:54:09;4.07;;;3.78;;
66425;SDS011;53237;46.158;14.604;2023-07-16T00:56:35;5.50;;;3.92;;
66425;SDS011;53237;46.158;14.604;2023-07-16T00:59:02;4.75;;;4.18;;
66425;SDS011;53237;46.158;14.604;2023-07-16T01:01:28;4.15;;;3.85;;
66425;SDS011;53237;46.158;14.604;2023-07-16T01:03:54;4.53;;;4.10;;
66425;SDS011;53237;46.158;14.604;2023-07-16T01:06:22;4.85;;;4.32;;
66425;SDS011;53237;46.158;14.604;2023-07-16T01:08:54;4.80;;;4.40;;
66425;SDS011;53237;46.158;14.604;2023-07-16T01:11:23;4.70;;;4.30;;
66425;SDS011;53237;46.158;14.604;2023-07-16T01:13:49;4.22;;;3.92;;
66425;SDS011;53237;46.158;14.604;2023-07-16T01:16:23;3.95;;;3.55;;
66425;SDS011;53237;46.158;14.604;2023-07-16T01:18:49;3.92;;;3.63;;
66425;SDS011;53237;46.158;14.604;2023-07-16T01:21:17;6.32;;;4.05;;
66425;SDS011;53237;46.158;14.604;2023-07-16T01:31:11;3.72;;;3.42;;
66425;SDS011;53237;46.158;14.604;2023-07-16T01:33:37;5.05;;;4.35;;
66425;SDS011;53237;46.158;14.604;2023-07-16T01:36:04;4.32;;;3.92;;
66425;SDS011;53237;46.158;14.604;2023-07-16T01:38:30;4.45;;;3.97;;
66425;SDS011;53237;46.158;14.604;2023-07-16T01:40:56;5.00;;;4.05;;
66425;SDS011;53237;46.158;14.604;2023-07-16T01:43:22;4.28;;;3.92;;
66425;SDS011;53237;46.158;14.604;2023-07-16T01:45:48;4.13;;;3.83;;
66425;SDS011;53237;46.158;14.604;2023-07-16T01:48:17;4.10;;;3.70;;
66425;SDS011;53237;46.158;14.604;2023-07-16T01:50:48;4.32;;;3.92;;
66425;SDS011;53237;46.158;14.604;2023-07-16T01:53:14;3.90;;;3.60;;
66425;SDS011;53237;46.158;14.604;2023-07-16T01:55:40;4.13;;;3.83;;
66425;SDS011;53237;46.158;14.604;2023-07-16T01:58:06;4.00;;;3.70;;
66425;SDS011;53237;46.158;14.604;2023-07-16T02:00:33;4.35;;;3.95;;
66425;SDS011;53237;46.158;14.604;2023-07-16T02:02:59;4.30;;;3.90;;
66425;SDS011;53237;46.158;14.604;2023-07-16T02:05:25;4.35;;;3.95;;
66425;SDS011;53237;46.158;14.604;2023-07-16T02:07:51;3.50;;;3.20;;
66425;SDS011;53237;46.158;14.604;2023-07-16T02:10:17;4.13;;;3.72;;
66425;SDS011;53237;46.158;14.604;2023-07-16T02:12:43;4.68;;;3.65;;
66425;SDS011;53237;46.158;14.604;2023-07-16T02:15:09;4.35;;;3.97;;
66425;SDS011;53237;46.158;14.604;2023-07-16T02:17:35;3.92;;;3.53;;
66425;SDS011;53237;46.158;14.604;2023-07-16T02:20:01;3.78;;;3.45;;
66425;SDS011;53237;46.158;14.604;2023-07-16T02:22:30;3.95;;;3.60;;
66425;SDS011;53237;46.158;14.604;2023-07-16T02:24:56;4.07;;;3.78;;
66425;SDS011;53237;46.158;14.604;2023-07-16T02:27:22;3.63;;;3.33;;
66425;SDS011;53237;46.158;14.604;2023-07-16T02:29:48;4.50;;;4.10;;
66425;SDS011;53237;46.158;14.604;2023-07-16T02:32:14;4.03;;;3.72;;
66425;SDS011;53237;46.158;14.604;2023-07-16T02:34:40;3.78;;;3.47;;
66425;SDS011;53237;46.158;14.604;2023-07-16T02:37:06;4.25;;;3.85;;
66425;SDS011;53237;46.158;14.604;2023-07-16T02:39:32;4.05;;;3.63;;
66425;SDS011;53237;46.158;14.604;2023-07-16T02:41:58;4.60;;;3.50;;
66425;SDS011;53237;46.158;14.604;2023-07-16T02:44:24;3.22;;;3.03;;
66425;SDS011;53237;46.158;14.604;2023-07-16T02:46:50;3.30;;;3.10;;
66425;SDS011;53237;46.158;14.604;2023-07-16T02:49:16;4.20;;;3.80;;
66425;SDS011;53237;46.158;14.604;2023-07-16T02:51:42;4.00;;;3.45;;
66425;SDS011;53237;46.158;14.604;2023-07-16T02:54:08;4.60;;;3.92;;
66425;SDS011;53237;46.158;14.604;2023-07-16T02:56:34;4.25;;;3.85;;
66425;SDS011;53237;46.158;14.604;2023-07-16T02:59:00;3.47;;;3.20;;
66425;SDS011;53237;46.158;14.604;2023-07-16T03:01:26;3.90;;;3.60;;
66425;SDS011;53237;46.158;14.604;2023-07-16T03:03:52;4.22;;;3.60;;
66425;SDS011;53237;46.158;14.604;2023-07-16T03:06:18;4.15;;;3.75;;
66425;SDS011;53237;46.158;14.604;2023-07-16T03:08:44;4.60;;;3.40;;
66425;SDS011;53237;46.158;14.604;2023-07-16T03:11:10;4.07;;;3.72;;
66425;SDS011;53237;46.158;14.604;2023-07-16T03:13:36;4.18;;;3.63;;
66425;SDS011;53237;46.158;14.604;2023-07-16T03:16:03;3.90;;;3.60;;
66425;SDS011;53237;46.158;14.604;2023-07-16T03:18:29;3.78;;;3.47;;
66425;SDS011;53237;46.158;14.604;2023-07-16T03:20:56;3.40;;;3.20;;
66425;SDS011;53237;46.158;14.604;2023-07-16T03:23:22;4.15;;;3.80;;
66425;SDS011;53237;46.158;14.604;2023-07-16T03:25:48;4.00;;;3.60;;
66425;SDS011;53237;46.158;14.604;2023-07-16T03:28:14;5.38;;;3.63;;
66425;SDS011;53237;46.158;14.604;2023-07-16T03:30:44;3.55;;;3.35;;
66425;SDS011;53237;46.158;14.604;2023-07-16T03:33:10;3.90;;;3.60;;
66425;SDS011;53237;46.158;14.604;2023-07-16T03:35:36;3.53;;;3.33;;
66425;SDS011;53237;46.158;14.604;2023-07-16T03:38:02;3.72;;;3.42;;
66425;SDS011;53237;46.158;14.604;2023-07-16T03:40:28;4.15;;;3.80;;
66425;SDS011;53237;46.158;14.604;2023-07-16T03:42:54;3.55;;;3.25;;
66425;SDS011;53237;46.158;14.604;2023-07-16T03:45:20;4.05;;;3.65;;
66425;SDS011;53237;46.158;14.604;2023-07-16T03:47:46;4.28;;;3.70;;
66425;SDS011;53237;46.158;14.604;2023-07-16T03:50:12;3.70;;;3.40;;
66425;SDS011;53237;46.158;14.604;2023-07-16T03:52:38;3.70;;;3.40;;
66425;SDS011;53237;46.158;14.604;2023-07-16T03:55:04;4.20;;;3.90;;
66425;SDS011;53237;46.158;14.604;2023-07-16T03:57:30;3.78;;;3.47;;
66425;SDS011;53237;46.158;14.604;2023-07-16T03:59:56;4.10;;;3.80;;
66425;SDS011;53237;46.158;14.604;2023-07-16T04:02:23;4.95;;;3.70;;
66425;SDS011;53237;46.158;14.604;2023-07-16T04:04:49;5.20;;;3.83;;
66425;SDS011;53237;46.158;14.604;2023-07-16T04:07:15;4.82;;;4.35;;
66425;SDS011;53237;46.158;14.604;2023-07-16T04:09:41;4.10;;;3.70;;
66425;SDS011;53237;46.158;14.604;2023-07-16T04:12:07;4.35;;;3.88;;
66425;SDS011;53237;46.158;14.604;2023-07-16T04:14:33;4.03;;;3.72;;
66425;SDS011;53237;46.158;14.604;2023-07-16T04:16:59;3.97;;;3.67;;
66425;SDS011;53237;46.158;14.604;2023-07-16T04:19:25;5.50;;;4.63;;
66425;SDS011;53237;46.158;14.604;2023-07-16T04:21:51;6.22;;;3.70;;
66425;SDS011;53237;46.158;14.604;2023-07-16T04:24:17;3.78;;;3.45;;
66425;SDS011;53237;46.158;14.604;2023-07-16T04:26:43;3.63;;;3.22;;
66425;SDS011;53237;46.158;14.604;2023-07-16T04:29:09;4.55;;;4.10;;
66425;SDS011;53237;46.158;14.604;2023-07-16T04:31:35;5.45;;;4.55;;
66425;SDS011;53237;46.158;14.604;2023-07-16T04:34:01;5.15;;;4.40;;
66425;SDS011;53237;46.158;14.604;2023-07-16T04:36:27;4.82;;;4.32;;
66425;SDS011;53237;46.158;14.604;2023-07-16T04:38:53;5.28;;;4.72;;
66425;SDS011;53237;46.158;14.604;2023-07-16T04:41:19;4.30;;;3.90;;
66425;SDS011;53237;46.158;14.604;2023-07-16T04:43:45;4.85;;;4.38;;
66425;SDS011;53237;46.158;14.604;2023-07-16T04:46:11;5.88;;;4.38;;
66425;SDS011;53237;46.158;14.604;2023-07-16T04:48:37;3.40;;;3.20;;
66425;SDS011;53237;46.158;14.604;2023-07-16T04:51:03;4.07;;;3.72;;
66425;SDS011;53237;46.158;14.604;2023-07-16T04:53:29;4.30;;;3.42;;
66425;SDS011;53237;46.158;14.604;2023-07-16T04:55:55;5.07;;;4.57;;
66425;SDS011;53237;46.158;14.604;2023-07-16T04:58:21;4.43;;;4.03;;
66425;SDS011;53237;46.158;14.604;2023-07-16T05:00:47;4.10;;;3.80;;
66425;SDS011;53237;46.158;14.604;2023-07-16T05:03:14;3.80;;;3.50;;
66425;SDS011;53237;46.158;14.604;2023-07-16T05:05:40;3.60;;;3.30;;
66425;SDS011;53237;46.158;14.604;2023-07-16T05:08:06;4.53;;;4.13;;
66425;SDS011;53237;46.158;14.604;2023-07-16T05:10:32;4.90;;;4.45;;
66425;SDS011;53237;46.158;14.604;2023-07-16T05:12:58;6.63;;;4.80;;
66425;SDS011;53237;46.158;14.604;2023-07-16T05:15:24;4.85;;;4.45;;
66425;SDS011;53237;46.158;14.604;2023-07-16T05:17:50;4.95;;;4.55;;
66425;SDS011;53237;46.158;14.604;2023-07-16T05:20:16;5.15;;;4.70;;
66425;SDS011;53237;46.158;14.604;2023-07-16T05:22:42;5.15;;;4.65;;
66425;SDS011;53237;46.158;14.604;2023-07-16T05:25:08;5.20;;;4.80;;
66425;SDS011;53237;46.158;14.604;2023-07-16T05:27:34;5.30;;;4.90;;
66425;SDS011;53237;46.158;14.604;2023-07-16T05:30:00;5.18;;;4.68;;
66425;SDS011;53237;46.158;14.604;2023-07-16T05:32:26;6.15;;;5.15;;
66425;SDS011;53237;46.158;14.604;2023-07-16T05:34:52;5.93;;;4.80;;
66425;SDS011;53237;46.158;14.604;2023-07-16T05:37:18;5.30;;;4.80;;
66425;SDS011;53237;46.158;14.604;2023-07-16T05:39:44;5.00;;;4.57;;
66425;SDS011;53237;46.158;14.604;2023-07-16T05:42:10;5.00;;;4.60;;
66425;SDS011;53237;46.158;14.604;2023-07-16T05:44:36;6.50;;;5.00;;
66425;SDS011;53237;46.158;14.604;2023-07-16T05:47:02;4.88;;;4.38;;
66425;SDS011;53237;46.158;14.604;2023-07-16T05:49:28;5.38;;;4.82;;
66425;SDS011;53237;46.158;14.604;2023-07-16T05:51:54;6.10;;;5.50;;
66425;SDS011;53237;46.158;14.604;2023-07-16T05:54:21;5.80;;;5.20;;
66425;SDS011;53237;46.158;14.604;2023-07-16T05:56:47;5.78;;;5.25;;
66425;SDS011;53237;46.158;14.604;2023-07-16T05:59:13;7.18;;;5.18;;
66425;SDS011;53237;46.158;14.604;2023-07-16T06:01:39;6.25;;;4.20;;
66425;SDS011;53237;46.158;14.604;2023-07-16T06:04:05;6.43;;;4.30;;
66425;SDS011;53237;46.158;14.604;2023-07-16T06:06:31;9.18;;;5.75;;
66425;SDS011;53237;46.158;14.604;2023-07-16T06:08:57;5.78;;;5.28;;
66425;SDS011;53237;46.158;14.604;2023-07-16T06:11:23;6.57;;;5.68;;
66425;SDS011;53237;46.158;14.604;2023-07-16T06:13:49;5.68;;;5.15;;
66425;SDS011;53237;46.158;14.604;2023-07-16T06:16:15;6.38;;;5.00;;
66425;SDS011;53237;46.158;14.604;2023-07-16T06:18:41;6.15;;;5.55;;
66425;SDS011;53237;46.158;14.604;2023-07-16T06:21:07;4.93;;;4.53;;
66425;SDS011;53237;46.158;14.604;2023-07-16T06:23:33;6.10;;;4.60;;
66425;SDS011;53237;46.158;14.604;2023-07-16T06:25:59;4.70;;;4.30;;
66425;SDS011;53237;46.158;14.604;2023-07-16T06:28:25;5.00;;;4.50;;
66425;SDS011;53237;46.158;14.604;2023-07-16T06:30:50;6.30;;;3.92;;
66425;SDS011;53237;46.158;14.604;2023-07-16T06:33:19;5.88;;;5.38;;
66425;SDS011;53237;46.158;14.604;2023-07-16T06:35:46;5.65;;;5.15;;
66425;SDS011;53237;46.158;14.604;2023-07-16T06:38:12;7.18;;;5.07;;
66425;SDS011;53237;46.158;14.604;2023-07-16T06:40:39;7.70;;;5.47;;
66425;SDS011;53237;46.158;14.604;2023-07-16T06:43:05;5.30;;;4.80;;
66425;SDS011;53237;46.158;14.604;2023-07-16T06:45:31;4.95;;;4.45;;
66425;SDS011;53237;46.158;14.604;2023-07-16T06:47:56;5.78;;;4.95;;
66425;SDS011;53237;46.158;14.604;2023-07-16T06:50:22;5.22;;;4.78;;
66425;SDS011;53237;46.158;14.604;2023-07-16T06:52:48;6.65;;;5.13;;
66425;SDS011;53237;46.158;14.604;2023-07-16T06:55:14;5.68;;;4.70;;
66425;SDS011;53237;46.158;14.604;2023-07-16T06:57:40;5.68;;;4.60;;
66425;SDS011;53237;46.158;14.604;2023-07-16T07:00:06;5.10;;;4.63;;
66425;SDS011;53237;46.158;14.604;2023-07-16T07:02:35;5.50;;;4.90;;
66425;SDS011;53237;46.158;14.604;2023-07-16T07:05:01;5.20;;;4.70;;
66425;SDS011;53237;46.158;14.604;2023-07-16T07:07:27;5.15;;;4.68;;
66425;SDS011;53237;46.158;14.604;2023-07-16T07:09:53;5.28;;;4.47;;
66425;SDS011;53237;46.158;14.604;2023-07-16T07:12:19;4.95;;;4.55;;
66425;SDS011;53237;46.158;14.604;2023-07-16T07:14:46;7.28;;;4.35;;
66425;SDS011;53237;46.158;14.604;2023-07-16T07:17:13;5.22;;;4.72;;
66425;SDS011;53237;46.158;14.604;2023-07-16T07:19:39;6.20;;;5.03;;
66425;SDS011;53237;46.158;14.604;2023-07-16T07:22:05;6.50;;;4.80;;
66425;SDS011;53237;46.158;14.604;2023-07-16T07:24:31;5.10;;;4.70;;
66425;SDS011;53237;46.158;14.604;2023-07-16T07:26:57;5.35;;;4.65;;
66425;SDS011;53237;46.158;14.604;2023-07-16T07:29:23;4.35;;;3.95;;
66425;SDS011;53237;46.158;14.604;2023-07-16T07:31:48;4.93;;;4.15;;
66425;SDS011;53237;46.158;14.604;2023-07-16T07:34:14;4.50;;;4.13;;
66425;SDS011;53237;46.158;14.604;2023-07-16T07:36:40;5.68;;;4.68;;
66425;SDS011;53237;46.158;14.604;2023-07-16T07:39:07;4.82;;;4.40;;
66425;SDS011;53237;46.158;14.604;2023-07-16T07:41:33;5.57;;;4.07;;
66425;SDS011;53237;46.158;14.604;2023-07-16T07:43:59;4.82;;;4.43;;
66425;SDS011;53237;46.158;14.604;2023-07-16T07:46:25;4.50;;;4.10;;
66425;SDS011;53237;46.158;14.604;2023-07-16T07:48:51;4.50;;;4.10;;
66425;SDS011;53237;46.158;14.604;2023-07-16T07:51:17;4.95;;;4.45;;
66425;SDS011;53237;46.158;14.604;2023-07-16T07:53:43;6.70;;;5.30;;
66425;SDS011;53237;46.158;14.604;2023-07-16T07:56:09;6.22;;;4.85;;
66425;SDS011;53237;46.158;14.604;2023-07-16T07:58:35;6.30;;;4.88;;
66425;SDS011;53237;46.158;14.604;2023-07-16T08:01:07;6.00;;;5.30;;
66425;SDS011;53237;46.158;14.604;2023-07-16T08:03:33;5.65;;;4.60;;
66425;SDS011;53237;46.158;14.604;2023-07-16T08:05:59;5.68;;;4.75;;
66425;SDS011;53237;46.158;14.604;2023-07-16T08:08:25;9.07;;;5.50;;
66425;SDS011;53237;46.158;14.604;2023-07-16T08:10:52;7.38;;;5.25;;
66425;SDS011;53237;46.158;14.604;2023-07-16T08:13:18;6.70;;;5.28;;
66425;SDS011;53237;46.158;14.604;2023-07-16T08:15:44;5.50;;;4.78;;
66425;SDS011;53237;46.158;14.604;2023-07-16T08:18:10;6.47;;;4.78;;
66425;SDS011;53237;46.158;14.604;2023-07-16T08:20:36;5.95;;;4.63;;
66425;SDS011;53237;46.158;14.604;2023-07-16T08:23:02;4.95;;;4.55;;
66425;SDS011;53237;46.158;14.604;2023-07-16T08:25:28;4.57;;;4.18;;
66425;SDS011;53237;46.158;14.604;2023-07-16T08:27:54;6.85;;;4.63;;
66425;SDS011;53237;46.158;14.604;2023-07-16T08:30:20;4.75;;;4.25;;
66425;SDS011;53237;46.158;14.604;2023-07-16T08:32:46;4.32;;;4.00;;
66425;SDS011;53237;46.158;14.604;2023-07-16T08:35:12;3.72;;;3.42;;
66425;SDS011;53237;46.158;14.604;2023-07-16T08:37:42;4.22;;;3.75;;
66425;SDS011;53237;46.158;14.604;2023-07-16T08:40:08;4.50;;;4.05;;
66425;SDS011;53237;46.158;14.604;2023-07-16T08:42:36;4.20;;;3.90;;
66425;SDS011;53237;46.158;14.604;2023-07-16T08:45:02;5.30;;;4.15;;
66425;SDS011;53237;46.158;14.604;2023-07-16T08:47:29;4.07;;;3.67;;
66425;SDS011;53237;46.158;14.604;2023-07-16T08:49:55;3.85;;;3.47;;
66425;SDS011;53237;46.158;14.604;2023-07-16T08:52:21;4.22;;;3.92;;
66425;SDS011;53237;46.158;14.604;2023-07-16T08:54:47;5.65;;;4.45;;
66425;SDS011;53237;46.158;14.604;2023-07-16T08:57:14;4.30;;;3.78;;
66425;SDS011;53237;46.158;14.604;2023-07-16T08:59:40;4.68;;;4.25;;
66425;SDS011;53237;46.158;14.604;2023-07-16T09:02:06;4.43;;;4.03;;
66425;SDS011;53237;46.158;14.604;2023-07-16T09:04:32;4.10;;;3.80;;
66425;SDS011;53237;46.158;14.604;2023-07-16T09:06:58;4.15;;;3.80;;
66425;SDS011;53237;46.158;14.604;2023-07-16T09:09:24;5.13;;;4.07;;
66425;SDS011;53237;46.158;14.604;2023-07-16T09:11:51;4.47;;;4.07;;
66425;SDS011;53237;46.158;14.604;2023-07-16T09:14:20;5.22;;;4.15;;
66425;SDS011;53237;46.158;14.604;2023-07-16T09:16:50;5.13;;;4.15;;
66425;SDS011;53237;46.158;14.604;2023-07-16T09:19:17;4.95;;;4.22;;
66425;SDS011;53237;46.158;14.604;2023-07-16T09:21:50;6.25;;;4.03;;
66425;SDS011;53237;46.158;14.604;2023-07-16T09:24:16;4.82;;;3.38;;
66425;SDS011;53237;46.158;14.604;2023-07-16T09:26:52;6.72;;;4.60;;
66425;SDS011;53237;46.158;14.604;2023-07-16T09:29:18;3.90;;;3.60;;
66425;SDS011;53237;46.158;14.604;2023-07-16T09:31:54;8.52;;;3.92;;
66425;SDS011;53237;46.158;14.604;2023-07-16T09:34:20;4.88;;;3.50;;
66425;SDS011;53237;46.158;14.604;2023-07-16T09:36:47;4.22;;;3.80;;
66425;SDS011;53237;46.158;14.604;2023-07-16T09:39:15;5.00;;;3.80;;
66425;SDS011;53237;46.158;14.604;2023-07-16T09:41:42;3.65;;;3.42;;
66425;SDS011;53237;46.158;14.604;2023-07-16T09:44:08;4.00;;;3.60;;
66425;SDS011;53237;46.158;14.604;2023-07-16T09:46:34;4.97;;;4.47;;
66425;SDS011;53237;46.158;14.604;2023-07-16T09:49:00;4.18;;;3.78;;
66425;SDS011;53237;46.158;14.604;2023-07-16T09:51:27;4.25;;;3.90;;
66425;SDS011;53237;46.158;14.604;2023-07-16T09:53:53;4.75;;;3.97;;
66425;SDS011;53237;46.158;14.604;2023-07-16T09:56:20;4.43;;;3.85;;
66425;SDS011;53237;46.158;14.604;2023-07-16T09:58:46;3.47;;;3.17;;
66425;SDS011;53237;46.158;14.604;2023-07-16T10:01:12;3.97;;;3.60;;
66425;SDS011;53237;46.158;14.604;2023-07-16T10:03:47;5.88;;;3.58;;
66425;SDS011;53237;46.158;14.604;2023-07-16T10:06:14;5.07;;;3.85;;
66425;SDS011;53237;46.158;14.604;2023-07-16T10:08:40;3.85;;;3.50;;
66425;SDS011;53237;46.158;14.604;2023-07-16T10:11:17;4.00;;;3.60;;
66425;SDS011;53237;46.158;14.604;2023-07-16T10:13:43;4.85;;;4.18;;
66425;SDS011;53237;46.158;14.604;2023-07-16T10:16:20;4.47;;;4.03;;
66425;SDS011;53237;46.158;14.604;2023-07-16T10:18:52;4.13;;;3.75;;
66425;SDS011;53237;46.158;14.604;2023-07-16T10:21:22;4.45;;;3.80;;
66425;SDS011;53237;46.158;14.604;2023-07-16T10:23:55;5.27;;;3.97;;
66425;SDS011;53237;46.158;14.604;2023-07-16T10:26:25;4.10;;;3.38;;
66425;SDS011;53237;46.158;14.604;2023-07-16T10:28:51;3.60;;;3.33;;
66425;SDS011;53237;46.158;14.604;2023-07-16T10:31:19;4.10;;;3.70;;
66425;SDS011;53237;46.158;14.604;2023-07-16T10:33:55;4.55;;;3.88;;
66425;SDS011;53237;46.158;14.604;2023-07-16T10:36:21;3.97;;;3.67;;
66425;SDS011;53237;46.158;14.604;2023-07-16T10:38:47;4.15;;;3.75;;
66425;SDS011;53237;46.158;14.604;2023-07-16T10:41:13;4.45;;;4.05;;
66425;SDS011;53237;46.158;14.604;2023-07-16T10:43:40;4.15;;;3.80;;
66425;SDS011;53237;46.158;14.604;2023-07-16T10:46:06;4.30;;;4.00;;
66425;SDS011;53237;46.158;14.604;2023-07-16T10:48:32;4.55;;;3.90;;
66425;SDS011;53237;46.158;14.604;2023-07-16T10:50:58;4.80;;;4.13;;
66425;SDS011;53237;46.158;14.604;2023-07-16T10:53:24;4.43;;;4.03;;
66425;SDS011;53237;46.158;14.604;2023-07-16T10:55:50;4.15;;;3.85;;
66425;SDS011;53237;46.158;14.604;2023-07-16T10:58:16;4.28;;;3.88;;
66425;SDS011;53237;46.158;14.604;2023-07-16T11:00:42;4.72;;;4.30;;
66425;SDS011;53237;46.158;14.604;2023-07-16T11:03:08;5.78;;;4.15;;
66425;SDS011;53237;46.158;14.604;2023-07-16T11:05:34;4.60;;;4.20;;
66425;SDS011;53237;46.158;14.604;2023-07-16T11:08:00;4.18;;;3.78;;
66425;SDS011;53237;46.158;14.604;2023-07-16T11:10:29;4.82;;;4.00;;
66425;SDS011;53237;46.158;14.604;2023-07-16T11:12:55;4.30;;;3.90;;
66425;SDS011;53237;46.158;14.604;2023-07-16T11:15:30;6.55;;;4.30;;
66425;SDS011;53237;46.158;14.604;2023-07-16T11:17:56;5.43;;;3.75;;
66425;SDS011;53237;46.158;14.604;2023-07-16T11:20:22;4.65;;;3.63;;
66425;SDS011;53237;46.158;14.604;2023-07-16T11:22:48;4.93;;;4.00;;
66425;SDS011;53237;46.158;14.604;2023-07-16T11:25:14;4.32;;;3.92;;
66425;SDS011;53237;46.158;14.604;2023-07-16T11:27:41;4.00;;;3.67;;
66425;SDS011;53237;46.158;14.604;2023-07-16T11:30:07;5.20;;;3.80;;
66425;SDS011;53237;46.158;14.604;2023-07-16T11:32:37;4.30;;;3.80;;
66425;SDS011;53237;46.158;14.604;2023-07-16T11:35:04;4.03;;;3.63;;
66425;SDS011;53237;46.158;14.604;2023-07-16T11:37:32;4.78;;;4.38;;
66425;SDS011;53237;46.158;14.604;2023-07-16T11:40:00;3.95;;;3.65;;
66425;SDS011;53237;46.158;14.604;2023-07-16T11:44:54;5.22;;;4.20;;
66425;SDS011;53237;46.158;14.604;2023-07-16T11:47:20;4.60;;;4.20;;
66425;SDS011;53237;46.158;14.604;2023-07-16T11:49:47;4.05;;;3.65;;
66425;SDS011;53237;46.158;14.604;2023-07-16T11:52:13;4.10;;;3.70;;
66425;SDS011;53237;46.158;14.604;2023-07-16T11:54:39;4.75;;;3.88;;
66425;SDS011;53237;46.158;14.604;2023-07-16T11:57:05;5.53;;;4.45;;
66425;SDS011;53237;46.158;14.604;2023-07-16T11:59:32;4.15;;;3.70;;
66425;SDS011;53237;46.158;14.604;2023-07-16T12:01:58;5.75;;;3.88;;
66425;SDS011;53237;46.158;14.604;2023-07-16T12:04:25;6.55;;;3.90;;
66425;SDS011;53237;46.158;14.604;2023-07-16T12:06:52;3.95;;;3.53;;
66425;SDS011;53237;46.158;14.604;2023-07-16T12:09:18;5.18;;;3.83;;
66425;SDS011;53237;46.158;14.604;2023-07-16T12:11:43;5.25;;;3.70;;
66425;SDS011;53237;46.158;14.604;2023-07-16T12:14:09;3.97;;;3.67;;
66425;SDS011;53237;46.158;14.604;2023-07-16T12:16:37;5.20;;;3.67;;
66425;SDS011;53237;46.158;14.604;2023-07-16T12:19:04;6.85;;;3.58;;
66425;SDS011;53237;46.158;14.604;2023-07-16T12:21:30;4.57;;;3.75;;
66425;SDS011;53237;46.158;14.604;2023-07-16T12:23:56;5.93;;;4.72;;
66425;SDS011;53237;46.158;14.604;2023-07-16T12:26:22;3.85;;;3.30;;
66425;SDS011;53237;46.158;14.604;2023-07-16T12:28:48;4.90;;;3.70;;
66425;SDS011;53237;46.158;14.604;2023-07-16T12:31:14;4.97;;;3.60;;
66425;SDS011;53237;46.158;14.604;2023-07-16T12:33:42;5.03;;;3.55;;
66425;SDS011;53237;46.158;14.604;2023-07-16T12:36:08;3.83;;;3.53;;
66425;SDS011;53237;46.158;14.604;2023-07-16T12:38:34;3.67;;;3.25;;
66425;SDS011;53237;46.158;14.604;2023-07-16T12:41:00;3.58;;;3.25;;
66425;SDS011;53237;46.158;14.604;2023-07-16T12:43:26;3.60;;;3.30;;
66425;SDS011;53237;46.158;14.604;2023-07-16T12:45:52;4.00;;;3.60;;
66425;SDS011;53237;46.158;14.604;2023-07-16T12:48:18;3.50;;;3.30;;
66425;SDS011;53237;46.158;14.604;2023-07-16T12:50:44;3.70;;;3.40;;
66425;SDS011;53237;46.158;14.604;2023-07-16T12:53:10;4.38;;;3.97;;
66425;SDS011;53237;46.158;14.604;2023-07-16T12:55:36;4.38;;;3.97;;
66425;SDS011;53237;46.158;14.604;2023-07-16T12:58:02;4.00;;;3.60;;
66425;SDS011;53237;46.158;14.604;2023-07-16T13:00:28;5.75;;;3.40;;
66425;SDS011;53237;46.158;14.604;2023-07-16T13:02:54;4.30;;;3.85;;
66425;SDS011;53237;46.158;14.604;2023-07-16T13:05:20;4.22;;;3.30;;
66425;SDS011;53237;46.158;14.604;2023-07-16T13:07:46;5.32;;;4.07;;
66425;SDS011;53237;46.158;14.604;2023-07-16T13:10:12;3.88;;;3.58;;
66425;SDS011;53237;46.158;14.604;2023-07-16T13:12:38;3.95;;;3.33;;
66425;SDS011;53237;46.158;14.604;2023-07-16T13:15:04;3.42;;;3.10;;
66425;SDS011;53237;46.158;14.604;2023-07-16T13:17:31;6.05;;;3.53;;
66425;SDS011;53237;46.158;14.604;2023-07-16T13:19:57;4.28;;;3.10;;
66425;SDS011;53237;46.158;14.604;2023-07-16T13:22:23;3.85;;;3.50;;
66425;SDS011;53237;46.158;14.604;2023-07-16T13:24:49;4.30;;;3.38;;
66425;SDS011;53237;46.158;14.604;2023-07-16T13:27:22;5.97;;;3.22;;
66425;SDS011;53237;46.158;14.604;2023-07-16T13:29:48;3.80;;;3.47;;
66425;SDS011;53237;46.158;14.604;2023-07-16T13:32:14;3.22;;;2.92;;
66425;SDS011;53237;46.158;14.604;2023-07-16T13:34:41;5.30;;;3.45;;
66425;SDS011;53237;46.158;14.604;2023-07-16T13:37:07;5.72;;;3.10;;
66425;SDS011;53237;46.158;14.604;2023-07-16T13:39:33;4.22;;;3.28;;
66425;SDS011;53237;46.158;14.604;2023-07-16T13:41:59;4.75;;;3.13;;
66425;SDS011;53237;46.158;14.604;2023-07-16T13:44:25;3.63;;;3.33;;
66425;SDS011;53237;46.158;14.604;2023-07-16T13:46:51;5.10;;;2.70;;
66425;SDS011;53237;46.158;14.604;2023-07-16T13:49:16;3.30;;;3.00;;
66425;SDS011;53237;46.158;14.604;2023-07-16T13:51:42;3.50;;;2.85;;
66425;SDS011;53237;46.158;14.604;2023-07-16T13:54:10;6.03;;;3.15;;
66425;SDS011;53237;46.158;14.604;2023-07-16T13:56:36;6.22;;;3.50;;
66425;SDS011;53237;46.158;14.604;2023-07-16T13:59:02;4.72;;;3.42;;
66425;SDS011;53237;46.158;14.604;2023-07-16T14:01:28;4.60;;;2.72;;
66425;SDS011;53237;46.158;14.604;2023-07-16T14:03:55;4.18;;;3.10;;
66425;SDS011;53237;46.158;14.604;2023-07-16T14:06:21;3.10;;;2.80;;
66425;SDS011;53237;46.158;14.604;2023-07-16T14:08:47;3.08;;;2.50;;
66425;SDS011;53237;46.158;14.604;2023-07-16T14:11:13;3.53;;;3.05;;
66425;SDS011;53237;46.158;14.604;2023-07-16T14:13:40;4.88;;;2.97;;
66425;SDS011;53237;46.158;14.604;2023-07-16T14:16:06;4.78;;;3.05;;
66425;SDS011;53237;46.158;14.604;2023-07-16T14:18:32;4.50;;;2.70;;
66425;SDS011;53237;46.158;14.604;2023-07-16T14:20:58;4.05;;;2.83;;
66425;SDS011;53237;46.158;14.604;2023-07-16T14:23:25;4.53;;;3.03;;
66425;SDS011;53237;46.158;14.604;2023-07-16T14:25:51;3.53;;;3.20;;
66425;SDS011;53237;46.158;14.604;2023-07-16T14:28:17;4.03;;;3.17;;
66425;SDS011;53237;46.158;14.604;2023-07-16T14:30:43;6.60;;;3.40;;
66425;SDS011;53237;46.158;14.604;2023-07-16T14:33:09;6.05;;;3.15;;
66425;SDS011;53237;46.158;14.604;2023-07-16T14:35:35;3.70;;;2.90;;
66425;SDS011;53237;46.158;14.604;2023-07-16T14:38:01;3.53;;;3.22;;